sensor_id;sensor_type;location;lat;lon;timestamp;pressure;altitude;pressure_sealevel;temperature;humidity
55466;BME280;41329;41.594;23.810;2023-12-28T00:01:07;96412.16;;;5.66;63.75
55466;BME280;41329;41.594;23.810;2023-12-28T00:03:33;96411.84;;;5.68;63.46
55466;BME280;41329;41.594;23.810;2023-12-28T00:05:58;96378.31;;;5.49;63.91
55466;BME280;41329;41.594;23.810;2023-12-28T00:08:24;96412.97;;;5.67;64.21
55466;BME280;41329;41.594;23.810;2023-12-28T00:10:49;96412.50;;;5.65;64.50
55466;BME280;41329;41.594;23.810;2023-12-28T00:13:14;96411.53;;;5.69;64.10
55466;BME280;41329;41.594;23.810;2023-12-28T00:15:40;96424.13;;;5.70;63.41
55466;BME280;41329;41.594;23.810;2023-12-28T00:18:05;96426.88;;;5.70;63.39
55466;BME280;41329;41.594;23.810;2023-12-28T00:20:31;96421.84;;;5.64;63.51
55466;BME280;41329;41.594;23.810;2023-12-28T00:22:56;96420.72;;;5.65;63.62
55466;BME280;41329;41.594;23.810;2023-12-28T00:25:23;96439.44;;;5.63;63.62
55466;BME280;41329;41.594;23.810;2023-12-28T00:27:48;96441.81;;;5.56;63.93
55466;BME280;41329;41.594;23.810;2023-12-28T00:30:14;96451.69;;;5.57;63.72
55466;BME280;41329;41.594;23.810;2023-12-28T00:32:42;96447.63;;;5.54;63.73
55466;BME280;41329;41.594;23.810;2023-12-28T00:35:10;96447.75;;;5.49;63.42
55466;BME280;41329;41.594;23.810;2023-12-28T00:37:35;96447.09;;;5.44;63.27
55466;BME280;41329;41.594;23.810;2023-12-28T00:40:01;96455.63;;;5.42;63.94
55466;BME280;41329;41.594;23.810;2023-12-28T00:42:26;96453.50;;;5.39;63.84
55466;BME280;41329;41.594;23.810;2023-12-28T00:44:51;96404.97;;;5.04;63.55
55466;BME280;41329;41.594;23.810;2023-12-28T00:47:17;96446.31;;;5.30;63.23
55466;BME280;41329;41.594;23.810;2023-12-28T00:49:43;96456.97;;;5.31;63.19
55466;BME280;41329;41.594;23.810;2023-12-28T00:52:08;96454.50;;;5.21;62.48
55466;BME280;41329;41.594;23.810;2023-12-28T00:54:35;96468.69;;;5.23;62.46
55466;BME280;41329;41.594;23.810;2023-12-28T00:57:03;96464.06;;;5.10;62.25
55466;BME280;41329;41.594;23.810;2023-12-28T00:59:29;96442.22;;;4.83;62.49
55466;BME280;41329;41.594;23.810;2023-12-28T01:01:55;96461.41;;;4.83;62.93
55466;BME280;41329;41.594;23.810;2023-12-28T01:04:21;96428.75;;;4.60;63.62
55466;BME280;41329;41.594;23.810;2023-12-28T01:06:49;96467.22;;;4.68;63.96
55466;BME280;41329;41.594;23.810;2023-12-28T01:09:14;96450.91;;;4.50;64.68
55466;BME280;41329;41.594;23.810;2023-12-28T01:11:40;96473.22;;;4.57;64.97
55466;BME280;41329;41.594;23.810;2023-12-28T01:14:05;96476.75;;;4.57;65.49
55466;BME280;41329;41.594;23.810;2023-12-28T01:16:30;96440.16;;;4.40;66.09
55466;BME280;41329;41.594;23.810;2023-12-28T01:18:56;96441.16;;;4.30;66.50
55466;BME280;41329;41.594;23.810;2023-12-28T01:21:21;96481.16;;;4.58;66.00
55466;BME280;41329;41.594;23.810;2023-12-28T01:23:47;96455.66;;;4.44;65.07
55466;BME280;41329;41.594;23.810;2023-12-28T01:26:13;96487.13;;;4.60;64.78
55466;BME280;41329;41.594;23.810;2023-12-28T01:28:39;96478.72;;;4.57;64.92
55466;BME280;41329;41.594;23.810;2023-12-28T01:31:05;96474.03;;;4.57;64.93
55466;BME280;41329;41.594;23.810;2023-12-28T01:33:30;96480.75;;;4.51;65.55
55466;BME280;41329;41.594;23.810;2023-12-28T01:35:56;96471.19;;;4.35;65.12
55466;BME280;41329;41.594;23.810;2023-12-28T01:38:21;96457.72;;;4.25;64.82
55466;BME280;41329;41.594;23.810;2023-12-28T01:40:46;96473.34;;;4.25;65.16
55466;BME280;41329;41.594;23.810;2023-12-28T01:43:12;96466.03;;;4.20;65.18
55466;BME280;41329;41.594;23.810;2023-12-28T01:45:37;96465.72;;;4.08;65.61
55466;BME280;41329;41.594;23.810;2023-12-28T01:48:03;96472.22;;;4.12;65.83
55466;BME280;41329;41.594;23.810;2023-12-28T01:50:30;96480.94;;;4.14;66.13
55466;BME280;41329;41.594;23.810;2023-12-28T01:52:58;96474.84;;;4.17;66.36
55466;BME280;41329;41.594;23.810;2023-12-28T01:55:26;96469.09;;;4.19;66.34
55466;BME280;41329;41.594;23.810;2023-12-28T01:57:52;96466.03;;;4.20;66.36
55466;BME280;41329;41.594;23.810;2023-12-28T02:00:18;96447.03;;;4.10;66.58
55466;BME280;41329;41.594;23.810;2023-12-28T02:02:44;96459.63;;;4.25;66.57
55466;BME280;41329;41.594;23.810;2023-12-28T02:05:11;96468.03;;;4.28;66.67
55466;BME280;41329;41.594;23.810;2023-12-28T02:07:37;96462.91;;;4.27;66.15
55466;BME280;41329;41.594;23.810;2023-12-28T02:10:03;96462.25;;;4.30;65.81
55466;BME280;41329;41.594;23.810;2023-12-28T02:12:28;96465.22;;;4.33;65.62
55466;BME280;41329;41.594;23.810;2023-12-28T02:14:54;96458.94;;;4.33;65.68
55466;BME280;41329;41.594;23.810;2023-12-28T02:17:23;96462.91;;;4.27;65.54
55466;BME280;41329;41.594;23.810;2023-12-28T02:19:53;96467.56;;;4.26;65.47
55466;BME280;41329;41.594;23.810;2023-12-28T02:22:20;96456.28;;;4.14;65.06
55466;BME280;41329;41.594;23.810;2023-12-28T02:27:36;96452.22;;;4.12;65.26
55466;BME280;41329;41.594;23.810;2023-12-28T02:30:04;96452.63;;;4.05;65.60
55466;BME280;41329;41.594;23.810;2023-12-28T02:32:44;96479.03;;;4.15;66.39
55466;BME280;41329;41.594;23.810;2023-12-28T02:35:26;96475.16;;;4.16;66.39
55466;BME280;41329;41.594;23.810;2023-12-28T02:37:56;96478.72;;;4.16;66.26
55466;BME280;41329;41.594;23.810;2023-12-28T02:40:23;96461.75;;;4.14;65.54
55466;BME280;41329;41.594;23.810;2023-12-28T02:42:49;96465.81;;;4.17;64.82
55466;BME280;41329;41.594;23.810;2023-12-28T02:45:15;96459.94;;;4.10;64.72
55466;BME280;41329;41.594;23.810;2023-12-28T02:47:40;96461.56;;;4.11;64.88
55466;BME280;41329;41.594;23.810;2023-12-28T02:50:06;96466.03;;;4.07;64.79
55466;BME280;41329;41.594;23.810;2023-12-28T02:52:32;96429.78;;;3.83;65.00
55466;BME280;41329;41.594;23.810;2023-12-28T02:54:57;96463.16;;;3.98;65.54
55466;BME280;41329;41.594;23.810;2023-12-28T02:57:22;96458.50;;;3.99;65.99
55466;BME280;41329;41.594;23.810;2023-12-28T02:59:48;96450.91;;;3.96;66.40
55466;BME280;41329;41.594;23.810;2023-12-28T03:02:13;96458.31;;;3.95;66.06
55466;BME280;41329;41.594;23.810;2023-12-28T03:04:39;96457.59;;;3.90;65.64
55466;BME280;41329;41.594;23.810;2023-12-28T03:07:05;96445.09;;;3.84;65.57
55466;BME280;41329;41.594;23.810;2023-12-28T03:09:32;96432.44;;;3.74;65.54
55466;BME280;41329;41.594;23.810;2023-12-28T03:11:58;96447.13;;;3.78;65.50
55466;BME280;41329;41.594;23.810;2023-12-28T03:14:23;96466.19;;;3.83;65.35
55466;BME280;41329;41.594;23.810;2023-12-28T03:16:48;96457.06;;;3.74;65.71
55466;BME280;41329;41.594;23.810;2023-12-28T03:19:14;96465.09;;;3.84;65.69
55466;BME280;41329;41.594;23.810;2023-12-28T03:21:40;96473.00;;;3.86;66.11
55466;BME280;41329;41.594;23.810;2023-12-28T03:24:06;96471.06;;;3.86;66.24
55466;BME280;41329;41.594;23.810;2023-12-28T03:26:31;96461.22;;;3.85;66.01
55466;BME280;41329;41.594;23.810;2023-12-28T03:28:56;96449.66;;;3.75;65.67
55466;BME280;41329;41.594;23.810;2023-12-28T03:31:22;96474.63;;;3.87;65.58
55466;BME280;41329;41.594;23.810;2023-12-28T03:33:48;96465.19;;;3.79;65.82
55466;BME280;41329;41.594;23.810;2023-12-28T03:36:20;96459.41;;;3.81;65.34
55466;BME280;41329;41.594;23.810;2023-12-28T03:38:46;96472.47;;;3.84;65.39
55466;BME280;41329;41.594;23.810;2023-12-28T03:41:21;96462.44;;;3.79;65.10
55466;BME280;41329;41.594;23.810;2023-12-28T03:43:47;96470.34;;;3.81;65.45
55466;BME280;41329;41.594;23.810;2023-12-28T03:46:12;96471.97;;;3.82;65.43
55466;BME280;41329;41.594;23.810;2023-12-28T03:48:38;96461.53;;;3.70;65.22
55466;BME280;41329;41.594;23.810;2023-12-28T03:51:04;96465.88;;;3.71;64.99
55466;BME280;41329;41.594;23.810;2023-12-28T03:53:30;96453.38;;;3.65;64.98
55466;BME280;41329;41.594;23.810;2023-12-28T03:55:57;96480.38;;;3.72;64.84
55466;BME280;41329;41.594;23.810;2023-12-28T03:58:23;96431.22;;;3.35;64.58
55466;BME280;41329;41.594;23.810;2023-12-28T04:00:48;96482.94;;;3.50;64.49
55466;BME280;41329;41.594;23.810;2023-12-28T04:03:14;96490.19;;;3.41;64.62
55466;BME280;41329;41.594;23.810;2023-12-28T04:05:39;96492.72;;;3.37;64.91
55466;BME280;41329;41.594;23.810;2023-12-28T04:08:05;96486.06;;;3.25;65.45
55466;BME280;41329;41.594;23.810;2023-12-28T04:10:32;96484.84;;;3.17;66.05
55466;BME280;41329;41.594;23.810;2023-12-28T04:12:58;96486.44;;;3.18;66.48
55466;BME280;41329;41.594;23.810;2023-12-28T04:15:25;96475.31;;;3.15;67.04
55466;BME280;41329;41.594;23.810;2023-12-28T04:17:50;96484.00;;;3.17;67.18
55466;BME280;41329;41.594;23.810;2023-12-28T04:20:16;96486.09;;;3.06;67.56
55466;BME280;41329;41.594;23.810;2023-12-28T04:22:42;96486.84;;;3.12;67.26
55466;BME280;41329;41.594;23.810;2023-12-28T04:25:09;96461.56;;;3.01;67.35
55466;BME280;41329;41.594;23.810;2023-12-28T04:27:34;96488.41;;;3.18;67.11
55466;BME280;41329;41.594;23.810;2023-12-28T04:30:00;96450.53;;;3.06;66.97
55466;BME280;41329;41.594;23.810;2023-12-28T04:32:25;96457.88;;;3.11;67.37
55466;BME280;41329;41.594;23.810;2023-12-28T04:34:51;96475.50;;;3.18;67.67
55466;BME280;41329;41.594;23.810;2023-12-28T04:37:17;96482.94;;;3.18;67.66
55466;BME280;41329;41.594;23.810;2023-12-28T04:39:42;96464.97;;;3.12;67.34
55466;BME280;41329;41.594;23.810;2023-12-28T04:42:08;96482.63;;;3.19;67.34
55466;BME280;41329;41.594;23.810;2023-12-28T04:44:37;96479.38;;;3.17;67.24
55466;BME280;41329;41.594;23.810;2023-12-28T04:47:04;96490.50;;;3.21;67.35
55466;BME280;41329;41.594;23.810;2023-12-28T04:49:29;96487.78;;;3.21;66.75
55466;BME280;41329;41.594;23.810;2023-12-28T04:51:54;96486.16;;;3.20;66.67
55466;BME280;41329;41.594;23.810;2023-12-28T04:54:21;96484.00;;;3.17;66.85
55466;BME280;41329;41.594;23.810;2023-12-28T04:56:46;96494.16;;;3.16;66.47
55466;BME280;41329;41.594;23.810;2023-12-28T04:59:11;96499.63;;;3.16;66.47
55466;BME280;41329;41.594;23.810;2023-12-28T05:01:41;96492.38;;;3.07;66.23
55466;BME280;41329;41.594;23.810;2023-12-28T05:04:07;96481.31;;;2.98;66.26
55466;BME280;41329;41.594;23.810;2023-12-28T05:06:32;96505.69;;;2.95;66.03
55466;BME280;41329;41.594;23.810;2023-12-28T05:08:57;96504.56;;;2.96;65.89
55466;BME280;41329;41.594;23.810;2023-12-28T05:11:23;96506.59;;;2.90;65.79
55466;BME280;41329;41.594;23.810;2023-12-28T05:13:48;96494.66;;;2.81;65.86
55466;BME280;41329;41.594;23.810;2023-12-28T05:16:14;96503.91;;;2.85;66.25
55466;BME280;41329;41.594;23.810;2023-12-28T05:18:39;96514.63;;;2.82;66.26
55466;BME280;41329;41.594;23.810;2023-12-28T05:21:04;96509.44;;;2.80;66.10
55466;BME280;41329;41.594;23.810;2023-12-28T05:23:30;96505.66;;;2.76;65.60
55466;BME280;41329;41.594;23.810;2023-12-28T05:25:55;96518.28;;;2.72;65.92
55466;BME280;41329;41.594;23.810;2023-12-28T05:28:21;96516.66;;;2.71;66.16
55466;BME280;41329;41.594;23.810;2023-12-28T05:30:46;96522.41;;;2.70;66.48
55466;BME280;41329;41.594;23.810;2023-12-28T05:33:11;96488.16;;;2.59;66.66
55466;BME280;41329;41.594;23.810;2023-12-28T05:35:37;96506.31;;;2.68;67.11
55466;BME280;41329;41.594;23.810;2023-12-28T05:38:03;96508.09;;;2.59;67.81
55466;BME280;41329;41.594;23.810;2023-12-28T05:40:28;96509.38;;;2.67;67.71
55466;BME280;41329;41.594;23.810;2023-12-28T05:42:53;96503.91;;;2.67;67.54
55466;BME280;41329;41.594;23.810;2023-12-28T05:45:19;96519.41;;;2.71;67.36
55466;BME280;41329;41.594;23.810;2023-12-28T05:47:44;96509.59;;;2.70;67.23
55466;BME280;41329;41.594;23.810;2023-12-28T05:50:10;96494.34;;;2.64;67.10
55466;BME280;41329;41.594;23.810;2023-12-28T05:52:35;96511.75;;;2.73;67.16
55466;BME280;41329;41.594;23.810;2023-12-28T05:55:01;96522.88;;;2.77;66.89
55466;BME280;41329;41.594;23.810;2023-12-28T05:57:26;96516.59;;;2.76;66.64
55466;BME280;41329;41.594;23.810;2023-12-28T05:59:55;96520.97;;;2.77;66.35
55466;BME280;41329;41.594;23.810;2023-12-28T06:02:20;96522.88;;;2.77;66.26
55466;BME280;41329;41.594;23.810;2023-12-28T06:04:46;96529.19;;;2.77;66.44
55466;BME280;41329;41.594;23.810;2023-12-28T06:07:11;96526.72;;;2.76;66.47
55466;BME280;41329;41.594;23.810;2023-12-28T06:09:36;96525.41;;;2.73;66.41
55466;BME280;41329;41.594;23.810;2023-12-28T06:12:04;96526.19;;;2.74;66.58
55466;BME280;41329;41.594;23.810;2023-12-28T06:14:30;96526.72;;;2.76;66.60
55466;BME280;41329;41.594;23.810;2023-12-28T06:16:55;96521.09;;;2.67;66.28
55466;BME280;41329;41.594;23.810;2023-12-28T06:19:21;96503.88;;;2.48;65.63
55466;BME280;41329;41.594;23.810;2023-12-28T06:21:47;96511.72;;;2.55;65.82
55466;BME280;41329;41.594;23.810;2023-12-28T06:24:13;96532.66;;;2.59;65.48
55466;BME280;41329;41.594;23.810;2023-12-28T06:26:42;96516.41;;;2.49;66.14
55466;BME280;41329;41.594;23.810;2023-12-28T06:29:08;96500.88;;;2.45;68.22
55466;BME280;41329;41.594;23.810;2023-12-28T06:31:35;96517.84;;;2.65;70.72
55466;BME280;41329;41.594;23.810;2023-12-28T06:34:02;96520.16;;;2.77;71.99
55466;BME280;41329;41.594;23.810;2023-12-28T06:36:28;96518.97;;;2.83;71.78
55466;BME280;41329;41.594;23.810;2023-12-28T06:38:54;96531.31;;;2.99;71.70
55466;BME280;41329;41.594;23.810;2023-12-28T06:41:19;96481.72;;;2.68;70.89
55466;BME280;41329;41.594;23.810;2023-12-28T06:43:44;96531.78;;;3.06;69.44
55466;BME280;41329;41.594;23.810;2023-12-28T06:46:10;96522.66;;;2.92;69.25
55466;BME280;41329;41.594;23.810;2023-12-28T06:48:35;96528.00;;;3.02;68.85
55466;BME280;41329;41.594;23.810;2023-12-28T06:51:01;96532.91;;;3.05;68.45
55466;BME280;41329;41.594;23.810;2023-12-28T06:53:27;96532.91;;;3.05;69.20
55466;BME280;41329;41.594;23.810;2023-12-28T06:55:52;96531.41;;;3.12;68.51
55466;BME280;41329;41.594;23.810;2023-12-28T06:58:18;96540.41;;;3.13;67.55
55466;BME280;41329;41.594;23.810;2023-12-28T07:00:43;96536.72;;;3.04;67.68
55466;BME280;41329;41.594;23.810;2023-12-28T07:03:09;96530.44;;;2.85;68.14
55466;BME280;41329;41.594;23.810;2023-12-28T07:05:35;96540.56;;;2.61;68.87
55466;BME280;41329;41.594;23.810;2023-12-28T07:08:00;96534.34;;;2.55;69.07
55466;BME280;41329;41.594;23.810;2023-12-28T07:10:26;96520.63;;;2.60;69.20
55466;BME280;41329;41.594;23.810;2023-12-28T07:12:51;96505.34;;;2.59;69.49
55466;BME280;41329;41.594;23.810;2023-12-28T07:15:17;96538.34;;;2.86;69.03
55466;BME280;41329;41.594;23.810;2023-12-28T07:17:45;96538.16;;;2.78;68.94
55466;BME280;41329;41.594;23.810;2023-12-28T07:20:10;96545.13;;;2.89;68.84
55466;BME280;41329;41.594;23.810;2023-12-28T07:22:36;96516.22;;;2.83;69.61
55466;BME280;41329;41.594;23.810;2023-12-28T07:25:02;96526.31;;;3.06;70.90
55466;BME280;41329;41.594;23.810;2023-12-28T07:27:27;96523.56;;;3.24;70.69
55466;BME280;41329;41.594;23.810;2023-12-28T07:29:53;96527.09;;;3.25;70.42
55466;BME280;41329;41.594;23.810;2023-12-28T07:32:18;96518.75;;;3.35;70.01
55466;BME280;41329;41.594;23.810;2023-12-28T07:34:45;96541.13;;;3.55;70.07
55466;BME280;41329;41.594;23.810;2023-12-28T07:37:11;96527.44;;;3.55;70.12
55466;BME280;41329;41.594;23.810;2023-12-28T07:39:37;96528.47;;;3.59;70.47
55466;BME280;41329;41.594;23.810;2023-12-28T07:42:02;96534.00;;;3.73;70.85
55466;BME280;41329;41.594;23.810;2023-12-28T07:44:28;96524.88;;;3.77;70.61
55466;BME280;41329;41.594;23.810;2023-12-28T07:46:53;96541.78;;;3.98;70.67
55466;BME280;41329;41.594;23.810;2023-12-28T07:49:19;96525.13;;;3.94;70.51
55466;BME280;41329;41.594;23.810;2023-12-28T07:51:44;96551.56;;;4.17;70.69
55466;BME280;41329;41.594;23.810;2023-12-28T07:54:09;96551.31;;;4.00;70.97
55466;BME280;41329;41.594;23.810;2023-12-28T07:56:35;96555.03;;;3.91;71.58
55466;BME280;41329;41.594;23.810;2023-12-28T07:59:00;96559.63;;;3.95;72.00
55466;BME280;41329;41.594;23.810;2023-12-28T08:01:26;96538.31;;;3.92;71.87
55466;BME280;41329;41.594;23.810;2023-12-28T08:03:51;96566.03;;;4.18;71.26
55466;BME280;41329;41.594;23.810;2023-12-28T08:06:16;96549.31;;;4.19;71.16
55466;BME280;41329;41.594;23.810;2023-12-28T08:08:42;96567.41;;;4.47;71.13
55466;BME280;41329;41.594;23.810;2023-12-28T08:11:07;96564.28;;;4.54;70.70
55466;BME280;41329;41.594;23.810;2023-12-28T08:13:33;96568.63;;;4.55;70.36
55466;BME280;41329;41.594;23.810;2023-12-28T08:15:58;96552.78;;;4.65;70.49
55466;BME280;41329;41.594;23.810;2023-12-28T08:18:23;96547.00;;;4.67;70.49
55466;BME280;41329;41.594;23.810;2023-12-28T08:20:49;96566.69;;;4.82;70.46
55466;BME280;41329;41.594;23.810;2023-12-28T08:23:15;96567.53;;;4.96;71.13
55466;BME280;41329;41.594;23.810;2023-12-28T08:25:40;96566.09;;;5.12;70.51
55466;BME280;41329;41.594;23.810;2023-12-28T08:28:06;96547.28;;;5.06;70.79
55466;BME280;41329;41.594;23.810;2023-12-28T08:30:31;96566.34;;;5.24;70.40
55466;BME280;41329;41.594;23.810;2023-12-28T08:32:56;96566.84;;;5.40;70.16
55466;BME280;41329;41.594;23.810;2023-12-28T08:35:22;96571.34;;;5.58;70.47
55466;BME280;41329;41.594;23.810;2023-12-28T08:37:47;96555.50;;;5.55;70.04
55466;BME280;41329;41.594;23.810;2023-12-28T08:40:13;96569.56;;;5.75;69.90
55466;BME280;41329;41.594;23.810;2023-12-28T08:42:39;96558.47;;;5.80;68.88
55466;BME280;41329;41.594;23.810;2023-12-28T08:45:05;96547.22;;;5.68;69.01
55466;BME280;41329;41.594;23.810;2023-12-28T08:47:30;96566.16;;;5.92;69.01
55466;BME280;41329;41.594;23.810;2023-12-28T08:49:56;96559.09;;;5.99;69.10
55466;BME280;41329;41.594;23.810;2023-12-28T08:52:21;96543.97;;;6.10;69.43
55466;BME280;41329;41.594;23.810;2023-12-28T08:54:46;96544.69;;;6.24;68.66
55466;BME280;41329;41.594;23.810;2023-12-28T08:57:12;96545.84;;;6.23;68.47
55466;BME280;41329;41.594;23.810;2023-12-28T08:59:38;96517.22;;;6.24;69.17
55466;BME280;41329;41.594;23.810;2023-12-28T09:02:03;96537.13;;;6.61;69.33
55466;BME280;41329;41.594;23.810;2023-12-28T09:04:29;96535.75;;;6.80;68.63
55466;BME280;41329;41.594;23.810;2023-12-28T09:06:54;96530.56;;;6.79;67.60
55466;BME280;41329;41.594;23.810;2023-12-28T09:09:19;96528.31;;;6.89;66.77
55466;BME280;41329;41.594;23.810;2023-12-28T09:11:45;96518.44;;;6.88;67.22
55466;BME280;41329;41.594;23.810;2023-12-28T09:14:10;96519.59;;;6.87;66.66
55466;BME280;41329;41.594;23.810;2023-12-28T09:16:36;96491.56;;;6.85;66.96
55466;BME280;41329;41.594;23.810;2023-12-28T09:19:01;96487.88;;;6.90;67.57
55466;BME280;41329;41.594;23.810;2023-12-28T09:21:27;96502.66;;;7.11;68.83
55466;BME280;41329;41.594;23.810;2023-12-28T09:23:52;96493.94;;;7.34;69.36
55466;BME280;41329;41.594;23.810;2023-12-28T09:26:18;96495.38;;;7.66;68.58
55466;BME280;41329;41.594;23.810;2023-12-28T09:28:43;96488.53;;;7.89;67.41
55466;BME280;41329;41.594;23.810;2023-12-28T09:31:09;96483.03;;;7.97;65.87
55466;BME280;41329;41.594;23.810;2023-12-28T09:33:35;96475.53;;;7.98;65.74
55466;BME280;41329;41.594;23.810;2023-12-28T09:36:03;96457.41;;;7.97;65.46
55466;BME280;41329;41.594;23.810;2023-12-28T09:38:28;96465.78;;;8.17;66.46
55466;BME280;41329;41.594;23.810;2023-12-28T09:40:54;96461.91;;;8.10;65.87
55466;BME280;41329;41.594;23.810;2023-12-28T09:43:24;96460.09;;;8.14;66.02
55466;BME280;41329;41.594;23.810;2023-12-28T09:45:50;96427.66;;;8.19;65.71
55466;BME280;41329;41.594;23.810;2023-12-28T09:48:16;96427.28;;;8.38;64.27
55466;BME280;41329;41.594;23.810;2023-12-28T09:50:52;96435.25;;;8.39;64.66
55466;BME280;41329;41.594;23.810;2023-12-28T09:53:21;96420.84;;;8.25;64.89
55466;BME280;41329;41.594;23.810;2023-12-28T09:55:48;96433.19;;;8.19;63.91
55466;BME280;41329;41.594;23.810;2023-12-28T09:58:16;96425.31;;;8.47;64.51
55466;BME280;41329;41.594;23.810;2023-12-28T10:00:44;96429.00;;;8.51;63.09
55466;BME280;41329;41.594;23.810;2023-12-28T10:03:12;96425.50;;;8.71;61.88
55466;BME280;41329;41.594;23.810;2023-12-28T10:05:37;96421.59;;;8.72;62.45
55466;BME280;41329;41.594;23.810;2023-12-28T10:08:03;96411.50;;;8.76;60.92
55466;BME280;41329;41.594;23.810;2023-12-28T10:10:29;96405.25;;;8.87;60.71
55466;BME280;41329;41.594;23.810;2023-12-28T10:12:54;96405.84;;;9.01;61.66
55466;BME280;41329;41.594;23.810;2023-12-28T10:15:20;96380.03;;;8.97;58.96
55466;BME280;41329;41.594;23.810;2023-12-28T10:17:46;96390.41;;;9.21;59.35
55466;BME280;41329;41.594;23.810;2023-12-28T10:20:12;96379.16;;;9.26;58.77
55466;BME280;41329;41.594;23.810;2023-12-28T10:22:37;96380.09;;;9.30;58.06
55466;BME280;41329;41.594;23.810;2023-12-28T10:25:03;96382.59;;;9.43;59.74
55466;BME280;41329;41.594;23.810;2023-12-28T10:27:29;96372.41;;;9.68;58.71
55466;BME280;41329;41.594;23.810;2023-12-28T10:29:57;96356.09;;;9.75;57.44
55466;BME280;41329;41.594;23.810;2023-12-28T10:32:23;96354.38;;;9.82;57.54
55466;BME280;41329;41.594;23.810;2023-12-28T10:34:52;96348.22;;;10.09;57.86
55466;BME280;41329;41.594;23.810;2023-12-28T10:37:21;96335.09;;;10.30;57.22
55466;BME280;41329;41.594;23.810;2023-12-28T10:39:48;96338.69;;;10.43;54.69
55466;BME280;41329;41.594;23.810;2023-12-28T10:42:46;96325.97;;;10.66;54.89
55466;BME280;41329;41.594;23.810;2023-12-28T10:45:16;96328.78;;;10.93;54.22
55466;BME280;41329;41.594;23.810;2023-12-28T10:47:46;96315.56;;;10.87;51.45
55466;BME280;41329;41.594;23.810;2023-12-28T10:50:17;96312.31;;;10.97;52.86
55466;BME280;41329;41.594;23.810;2023-12-28T10:52:45;96324.00;;;11.18;53.75
55466;BME280;41329;41.594;23.810;2023-12-28T10:57:55;96312.69;;;11.50;51.93
55466;BME280;41329;41.594;23.810;2023-12-28T11:07:28;96294.03;;;11.35;53.07
55466;BME280;41329;41.594;23.810;2023-12-28T11:10:00;96288.97;;;11.53;53.83
55466;BME280;41329;41.594;23.810;2023-12-28T11:12:27;96293.25;;;11.62;50.11
55466;BME280;41329;41.594;23.810;2023-12-28T11:14:53;96284.56;;;11.64;49.93
55466;BME280;41329;41.594;23.810;2023-12-28T11:17:21;96253.97;;;11.60;49.98
55466;BME280;41329;41.594;23.810;2023-12-28T11:19:50;96266.97;;;11.87;50.77
55466;BME280;41329;41.594;23.810;2023-12-28T11:22:17;96270.56;;;12.19;50.80
55466;BME280;41329;41.594;23.810;2023-12-28T11:24:44;96255.13;;;12.37;50.43
55466;BME280;41329;41.594;23.810;2023-12-28T11:27:09;96252.94;;;12.46;48.97
55466;BME280;41329;41.594;23.810;2023-12-28T11:29:35;96256.75;;;12.73;49.17
55466;BME280;41329;41.594;23.810;2023-12-28T11:32:01;96251.13;;;12.88;48.93
55466;BME280;41329;41.594;23.810;2023-12-28T11:34:32;96245.09;;;13.02;48.34
55466;BME280;41329;41.594;23.810;2023-12-28T11:37:07;96245.84;;;13.18;46.71
55466;BME280;41329;41.594;23.810;2023-12-28T11:39:34;96235.72;;;13.29;46.93
55466;BME280;41329;41.594;23.810;2023-12-28T11:42:01;96215.59;;;13.35;46.90
55466;BME280;41329;41.594;23.810;2023-12-28T11:44:30;96214.44;;;13.59;47.71
55466;BME280;41329;41.594;23.810;2023-12-28T11:46:56;96226.91;;;13.87;46.02
55466;BME280;41329;41.594;23.810;2023-12-28T11:49:28;96211.44;;;13.90;45.04
55466;BME280;41329;41.594;23.810;2023-12-28T11:51:57;96227.38;;;14.15;45.77
55466;BME280;41329;41.594;23.810;2023-12-28T11:54:26;96186.72;;;14.07;45.46
55466;BME280;41329;41.594;23.810;2023-12-28T11:56:52;96225.41;;;14.38;44.29
55466;BME280;41329;41.594;23.810;2023-12-28T11:59:19;96233.63;;;14.57;45.67
55466;BME280;41329;41.594;23.810;2023-12-28T12:01:49;96240.53;;;14.67;45.91
55466;BME280;41329;41.594;23.810;2023-12-28T12:04:15;96241.06;;;14.76;44.70
55466;BME280;41329;41.594;23.810;2023-12-28T12:06:40;96231.59;;;14.80;45.46
55466;BME280;41329;41.594;23.810;2023-12-28T12:09:05;96226.97;;;14.91;44.92
55466;BME280;41329;41.594;23.810;2023-12-28T12:11:31;96228.41;;;15.11;44.78
55466;BME280;41329;41.594;23.810;2023-12-28T12:13:56;96220.16;;;15.18;43.63
55466;BME280;41329;41.594;23.810;2023-12-28T12:16:22;96215.38;;;15.19;42.92
55466;BME280;41329;41.594;23.810;2023-12-28T12:18:48;96212.63;;;15.22;40.41
55466;BME280;41329;41.594;23.810;2023-12-28T12:21:14;96203.41;;;15.18;42.29
55466;BME280;41329;41.594;23.810;2023-12-28T12:23:39;96206.94;;;15.45;41.75
55466;BME280;41329;41.594;23.810;2023-12-28T12:26:05;96198.75;;;15.62;41.56
55466;BME280;41329;41.594;23.810;2023-12-28T12:28:31;96188.28;;;15.52;40.45
55466;BME280;41329;41.594;23.810;2023-12-28T12:30:58;96194.84;;;15.70;41.29
55466;BME280;41329;41.594;23.810;2023-12-28T12:33:27;96199.41;;;15.89;39.25
55466;BME280;41329;41.594;23.810;2023-12-28T12:35:52;96195.16;;;16.02;39.33
55466;BME280;41329;41.594;23.810;2023-12-28T12:38:18;96190.94;;;16.22;39.89
55466;BME280;41329;41.594;23.810;2023-12-28T12:40:44;96190.34;;;16.46;38.87
55466;BME280;41329;41.594;23.810;2023-12-28T12:43:10;96183.25;;;16.55;37.62
55466;BME280;41329;41.594;23.810;2023-12-28T12:45:35;96181.28;;;16.63;36.71
55466;BME280;41329;41.594;23.810;2023-12-28T12:48:02;96162.03;;;16.51;36.65
55466;BME280;41329;41.594;23.810;2023-12-28T12:50:28;96177.78;;;16.76;38.32
55466;BME280;41329;41.594;23.810;2023-12-28T12:52:54;96173.84;;;16.91;36.81
55466;BME280;41329;41.594;23.810;2023-12-28T12:55:19;96175.19;;;17.25;37.80
55466;BME280;41329;41.594;23.810;2023-12-28T12:57:45;96156.91;;;17.42;36.01
55466;BME280;41329;41.594;23.810;2023-12-28T13:00:10;96165.75;;;17.75;35.50
55466;BME280;41329;41.594;23.810;2023-12-28T13:02:37;96163.78;;;17.87;35.44
55466;BME280;41329;41.594;23.810;2023-12-28T13:05:03;96160.97;;;18.22;34.69